sensor_id;sensor_type;location;lat;lon;timestamp;P1;durP1;ratioP1;P2;durP2;ratioP2
23506;SDS011;11930;53.076;18.250;2022-09-16T00:01:27;3.90;;;1.60;;
23506;SDS011;11930;53.076;18.250;2022-09-16T00:03:54;4.87;;;1.90;;
23506;SDS011;11930;53.076;18.250;2022-09-16T00:06:22;5.47;;;1.93;;
23506;SDS011;11930;53.076;18.250;2022-09-16T00:08:50;6.37;;;2.30;;
23506;SDS011;11930;53.076;18.250;2022-09-16T00:11:18;5.03;;;1.90;;
23506;SDS011;11930;53.076;18.250;2022-09-16T00:13:46;5.50;;;1.70;;
23506;SDS011;11930;53.076;18.250;2022-09-16T00:16:16;4.87;;;2.03;;
23506;SDS011;11930;53.076;18.250;2022-09-16T00:18:44;4.17;;;2.00;;
23506;SDS011;11930;53.076;18.250;2022-09-16T00:21:10;5.90;;;1.90;;
23506;SDS011;11930;53.076;18.250;2022-09-16T00:23:37;6.33;;;2.40;;
23506;SDS011;11930;53.076;18.250;2022-09-16T00:26:03;5.20;;;1.90;;
23506;SDS011;11930;53.076;18.250;2022-09-16T00:28:30;3.10;;;1.57;;
23506;SDS011;11930;53.076;18.250;2022-09-16T00:30:59;4.57;;;1.87;;
23506;SDS011;11930;53.076;18.250;2022-09-16T00:33:26;10.83;;;2.40;;
23506;SDS011;11930;53.076;18.250;2022-09-16T00:36:12;5.20;;;2.07;;
23506;SDS011;11930;53.076;18.250;2022-09-16T00:38:40;4.63;;;1.87;;
23506;SDS011;11930;53.076;18.250;2022-09-16T00:41:07;4.07;;;1.97;;
23506;SDS011;11930;53.076;18.250;2022-09-16T00:43:55;3.23;;;1.90;;
23506;SDS011;11930;53.076;18.250;2022-09-16T00:48:56;6.80;;;2.20;;
23506;SDS011;11930;53.076;18.250;2022-09-16T00:51:25;4.33;;;2.20;;
23506;SDS011;11930;53.076;18.250;2022-09-16T00:53:53;5.43;;;1.97;;
23506;SDS011;11930;53.076;18.250;2022-09-16T00:56:25;5.23;;;2.30;;
23506;SDS011;11930;53.076;18.250;2022-09-16T00:58:58;4.40;;;2.37;;
23506;SDS011;11930;53.076;18.250;2022-09-16T01:01:36;4.80;;;2.00;;
23506;SDS011;11930;53.076;18.250;2022-09-16T01:04:17;4.93;;;2.20;;
23506;SDS011;11930;53.076;18.250;2022-09-16T01:06:51;5.83;;;2.27;;
23506;SDS011;11930;53.076;18.250;2022-09-16T01:09:18;5.47;;;2.40;;
23506;SDS011;11930;53.076;18.250;2022-09-16T01:11:47;3.60;;;1.87;;
23506;SDS011;11930;53.076;18.250;2022-09-16T01:14:13;4.27;;;1.87;;
23506;SDS011;11930;53.076;18.250;2022-09-16T01:20:02;5.17;;;1.83;;
23506;SDS011;11930;53.076;18.250;2022-09-16T01:28:52;5.00;;;2.00;;
23506;SDS011;11930;53.076;18.250;2022-09-16T01:31:51;5.80;;;1.70;;
23506;SDS011;11930;53.076;18.250;2022-09-16T01:34:26;3.10;;;1.50;;
23506;SDS011;11930;53.076;18.250;2022-09-16T01:37:05;4.70;;;1.87;;
23506;SDS011;11930;53.076;18.250;2022-09-16T01:42:30;3.90;;;1.60;;
23506;SDS011;11930;53.076;18.250;2022-09-16T01:47:41;5.40;;;2.00;;
23506;SDS011;11930;53.076;18.250;2022-09-16T01:50:32;5.30;;;1.80;;
23506;SDS011;11930;53.076;18.250;2022-09-16T01:55:47;4.07;;;1.90;;
23506;SDS011;11930;53.076;18.250;2022-09-16T01:58:19;4.10;;;1.87;;
23506;SDS011;11930;53.076;18.250;2022-09-16T02:00:47;7.27;;;1.90;;
23506;SDS011;11930;53.076;18.250;2022-09-16T02:03:18;2.67;;;1.63;;
23506;SDS011;11930;53.076;18.250;2022-09-16T02:05:50;5.80;;;1.53;;
23506;SDS011;11930;53.076;18.250;2022-09-16T02:08:24;5.17;;;1.90;;
23506;SDS011;11930;53.076;18.250;2022-09-16T02:10:54;5.50;;;1.90;;
23506;SDS011;11930;53.076;18.250;2022-09-16T02:13:26;3.80;;;1.80;;
23506;SDS011;11930;53.076;18.250;2022-09-16T02:15:57;3.37;;;1.80;;
23506;SDS011;11930;53.076;18.250;2022-09-16T02:18:28;5.77;;;1.87;;
23506;SDS011;11930;53.076;18.250;2022-09-16T02:20:58;6.13;;;2.00;;
23506;SDS011;11930;53.076;18.250;2022-09-16T02:23:28;4.47;;;1.70;;
23506;SDS011;11930;53.076;18.250;2022-09-16T02:26:02;4.07;;;1.97;;
23506;SDS011;11930;53.076;18.250;2022-09-16T02:28:34;4.70;;;1.70;;
23506;SDS011;11930;53.076;18.250;2022-09-16T02:31:05;5.30;;;2.20;;
23506;SDS011;11930;53.076;18.250;2022-09-16T02:33:35;4.87;;;1.87;;
23506;SDS011;11930;53.076;18.250;2022-09-16T02:36:06;2.90;;;1.63;;
23506;SDS011;11930;53.076;18.250;2022-09-16T02:38:39;5.50;;;1.77;;
23506;SDS011;11930;53.076;18.250;2022-09-16T02:41:07;4.20;;;1.70;;
23506;SDS011;11930;53.076;18.250;2022-09-16T02:43:42;5.13;;;1.80;;
23506;SDS011;11930;53.076;18.250;2022-09-16T02:46:46;6.57;;;1.87;;
23506;SDS011;11930;53.076;18.250;2022-09-16T02:51:56;4.87;;;1.90;;
23506;SDS011;11930;53.076;18.250;2022-09-16T02:54:42;3.63;;;2.00;;
23506;SDS011;11930;53.076;18.250;2022-09-16T02:57:13;4.80;;;1.93;;
23506;SDS011;11930;53.076;18.250;2022-09-16T02:59:40;7.50;;;2.30;;
23506;SDS011;11930;53.076;18.250;2022-09-16T03:02:06;4.90;;;2.00;;
23506;SDS011;11930;53.076;18.250;2022-09-16T03:04:33;4.20;;;1.80;;
23506;SDS011;11930;53.076;18.250;2022-09-16T03:06:59;5.47;;;2.27;;
23506;SDS011;11930;53.076;18.250;2022-09-16T03:09:28;6.57;;;2.10;;
23506;SDS011;11930;53.076;18.250;2022-09-16T03:12:06;5.70;;;2.17;;
23506;SDS011;11930;53.076;18.250;2022-09-16T03:17:37;5.43;;;2.00;;
23506;SDS011;11930;53.076;18.250;2022-09-16T03:20:31;6.20;;;2.00;;
23506;SDS011;11930;53.076;18.250;2022-09-16T03:28:46;6.77;;;1.90;;
23506;SDS011;11930;53.076;18.250;2022-09-16T03:31:17;7.10;;;2.13;;
23506;SDS011;11930;53.076;18.250;2022-09-16T03:33:46;6.60;;;1.90;;
23506;SDS011;11930;53.076;18.250;2022-09-16T03:36:27;4.33;;;1.57;;
23506;SDS011;11930;53.076;18.250;2022-09-16T03:38:58;4.40;;;1.87;;
23506;SDS011;11930;53.076;18.250;2022-09-16T03:41:27;5.13;;;1.67;;
23506;SDS011;11930;53.076;18.250;2022-09-16T03:43:56;6.23;;;1.87;;
23506;SDS011;11930;53.076;18.250;2022-09-16T03:46:24;10.93;;;2.10;;
23506;SDS011;11930;53.076;18.250;2022-09-16T03:48:54;5.67;;;2.07;;
23506;SDS011;11930;53.076;18.250;2022-09-16T03:51:21;5.13;;;1.70;;
23506;SDS011;11930;53.076;18.250;2022-09-16T03:53:51;3.37;;;1.70;;
23506;SDS011;11930;53.076;18.250;2022-09-16T03:56:18;4.20;;;1.60;;
23506;SDS011;11930;53.076;18.250;2022-09-16T03:58:46;8.77;;;2.00;;
23506;SDS011;11930;53.076;18.250;2022-09-16T04:01:12;6.50;;;2.20;;
23506;SDS011;11930;53.076;18.250;2022-09-16T04:03:39;4.93;;;1.87;;
23506;SDS011;11930;53.076;18.250;2022-09-16T04:06:05;3.90;;;1.80;;
23506;SDS011;11930;53.076;18.250;2022-09-16T04:08:31;4.30;;;1.87;;
23506;SDS011;11930;53.076;18.250;2022-09-16T04:10:58;5.37;;;2.00;;
23506;SDS011;11930;53.076;18.250;2022-09-16T04:13:30;8.97;;;2.07;;
23506;SDS011;11930;53.076;18.250;2022-09-16T04:15:58;5.43;;;1.83;;
23506;SDS011;11930;53.076;18.250;2022-09-16T04:18:25;5.50;;;1.90;;
23506;SDS011;11930;53.076;18.250;2022-09-16T04:20:57;3.60;;;1.70;;
23506;SDS011;11930;53.076;18.250;2022-09-16T04:23:24;3.87;;;1.70;;
23506;SDS011;11930;53.076;18.250;2022-09-16T04:26:01;5.47;;;2.00;;
23506;SDS011;11930;53.076;18.250;2022-09-16T04:28:28;8.40;;;1.60;;
23506;SDS011;11930;53.076;18.250;2022-09-16T04:30:59;10.00;;;2.27;;
23506;SDS011;11930;53.076;18.250;2022-09-16T04:33:30;13.33;;;2.40;;
23506;SDS011;11930;53.076;18.250;2022-09-16T04:36:16;5.77;;;1.63;;
23506;SDS011;11930;53.076;18.250;2022-09-16T04:38:44;6.50;;;1.87;;
23506;SDS011;11930;53.076;18.250;2022-09-16T04:41:13;6.67;;;2.03;;
23506;SDS011;11930;53.076;18.250;2022-09-16T04:43:41;6.20;;;2.00;;
23506;SDS011;11930;53.076;18.250;2022-09-16T04:46:07;5.97;;;2.00;;
23506;SDS011;11930;53.076;18.250;2022-09-16T04:48:38;6.90;;;1.70;;
23506;SDS011;11930;53.076;18.250;2022-09-16T04:51:10;4.47;;;1.80;;
23506;SDS011;11930;53.076;18.250;2022-09-16T04:53:37;6.33;;;1.90;;
23506;SDS011;11930;53.076;18.250;2022-09-16T04:56:09;6.57;;;1.67;;
23506;SDS011;11930;53.076;18.250;2022-09-16T04:58:41;8.13;;;2.03;;
23506;SDS011;11930;53.076;18.250;2022-09-16T05:01:09;4.27;;;1.80;;
23506;SDS011;11930;53.076;18.250;2022-09-16T05:03:40;5.73;;;1.90;;
23506;SDS011;11930;53.076;18.250;2022-09-16T05:06:12;6.03;;;1.90;;
23506;SDS011;11930;53.076;18.250;2022-09-16T05:08:40;4.67;;;1.70;;
23506;SDS011;11930;53.076;18.250;2022-09-16T05:11:10;3.53;;;1.37;;
23506;SDS011;11930;53.076;18.250;2022-09-16T05:13:43;6.37;;;2.03;;
23506;SDS011;11930;53.076;18.250;2022-09-16T05:16:20;4.90;;;2.07;;
23506;SDS011;11930;53.076;18.250;2022-09-16T05:18:48;9.33;;;2.47;;
23506;SDS011;11930;53.076;18.250;2022-09-16T05:21:16;6.30;;;1.43;;
23506;SDS011;11930;53.076;18.250;2022-09-16T05:23:45;9.23;;;1.83;;
23506;SDS011;11930;53.076;18.250;2022-09-16T05:26:13;4.77;;;1.57;;
23506;SDS011;11930;53.076;18.250;2022-09-16T05:28:41;6.60;;;1.70;;
23506;SDS011;11930;53.076;18.250;2022-09-16T05:33:37;6.30;;;1.47;;
23506;SDS011;11930;53.076;18.250;2022-09-16T05:36:05;8.13;;;1.50;;
23506;SDS011;11930;53.076;18.250;2022-09-16T05:38:32;7.00;;;1.70;;
23506;SDS011;11930;53.076;18.250;2022-09-16T05:40:59;6.97;;;1.73;;
23506;SDS011;11930;53.076;18.250;2022-09-16T05:43:26;9.17;;;1.77;;
23506;SDS011;11930;53.076;18.250;2022-09-16T05:45:52;6.90;;;1.20;;
23506;SDS011;11930;53.076;18.250;2022-09-16T05:48:20;10.27;;;1.60;;
23506;SDS011;11930;53.076;18.250;2022-09-16T05:50:53;6.70;;;1.60;;
23506;SDS011;11930;53.076;18.250;2022-09-16T05:53:19;7.73;;;1.70;;
23506;SDS011;11930;53.076;18.250;2022-09-16T05:58:28;4.50;;;1.47;;
23506;SDS011;11930;53.076;18.250;2022-09-16T06:00:59;5.87;;;1.40;;
23506;SDS011;11930;53.076;18.250;2022-09-16T06:03:28;6.50;;;1.30;;
23506;SDS011;11930;53.076;18.250;2022-09-16T06:08:28;6.72;;;1.23;;
23506;SDS011;11930;53.076;18.250;2022-09-16T06:10:55;3.42;;;1.05;;
23506;SDS011;11930;53.076;18.250;2022-09-16T06:13:21;5.13;;;1.40;;
23506;SDS011;11930;53.076;18.250;2022-09-16T06:15:48;6.00;;;1.60;;
23506;SDS011;11930;53.076;18.250;2022-09-16T06:18:16;7.30;;;1.50;;
23506;SDS011;11930;53.076;18.250;2022-09-16T06:20:43;3.90;;;1.20;;
23506;SDS011;11930;53.076;18.250;2022-09-16T06:23:10;5.22;;;1.48;;
23506;SDS011;11930;53.076;18.250;2022-09-16T06:25:36;6.05;;;1.80;;
23506;SDS011;11930;53.076;18.250;2022-09-16T06:28:02;5.28;;;1.38;;
23506;SDS011;11930;53.076;18.250;2022-09-16T06:30:29;6.80;;;1.90;;
23506;SDS011;11930;53.076;18.250;2022-09-16T06:32:55;6.65;;;2.30;;
23506;SDS011;11930;53.076;18.250;2022-09-16T06:35:21;4.55;;;1.50;;
23506;SDS011;11930;53.076;18.250;2022-09-16T06:37:48;11.20;;;1.70;;
23506;SDS011;11930;53.076;18.250;2022-09-16T06:40:15;4.95;;;1.45;;
23506;SDS011;11930;53.076;18.250;2022-09-16T06:42:41;5.80;;;1.63;;
23506;SDS011;11930;53.076;18.250;2022-09-16T06:45:07;4.80;;;1.88;;
23506;SDS011;11930;53.076;18.250;2022-09-16T06:47:34;7.88;;;3.17;;
23506;SDS011;11930;53.076;18.250;2022-09-16T06:50:00;6.30;;;2.40;;
23506;SDS011;11930;53.076;18.250;2022-09-16T06:52:26;6.07;;;2.40;;
23506;SDS011;11930;53.076;18.250;2022-09-16T06:54:53;4.82;;;1.80;;
23506;SDS011;11930;53.076;18.250;2022-09-16T06:57:19;6.63;;;1.80;;
23506;SDS011;11930;53.076;18.250;2022-09-16T06:59:48;7.18;;;2.13;;
23506;SDS011;11930;53.076;18.250;2022-09-16T07:02:14;4.70;;;1.70;;
23506;SDS011;11930;53.076;18.250;2022-09-16T07:04:41;4.60;;;1.75;;
23506;SDS011;11930;53.076;18.250;2022-09-16T07:07:08;5.28;;;1.52;;
23506;SDS011;11930;53.076;18.250;2022-09-16T07:09:34;6.03;;;1.40;;
23506;SDS011;11930;53.076;18.250;2022-09-16T07:12:00;4.20;;;1.60;;
23506;SDS011;11930;53.076;18.250;2022-09-16T07:14:27;4.47;;;1.60;;
23506;SDS011;11930;53.076;18.250;2022-09-16T07:16:53;4.90;;;1.58;;
23506;SDS011;11930;53.076;18.250;2022-09-16T07:19:19;5.65;;;1.38;;
23506;SDS011;11930;53.076;18.250;2022-09-16T07:21:46;4.90;;;1.30;;
23506;SDS011;11930;53.076;18.250;2022-09-16T07:24:12;3.40;;;1.35;;
23506;SDS011;11930;53.076;18.250;2022-09-16T07:26:39;5.95;;;1.77;;
23506;SDS011;11930;53.076;18.250;2022-09-16T07:29:07;6.15;;;1.48;;
23506;SDS011;11930;53.076;18.250;2022-09-16T07:31:36;4.18;;;1.48;;
23506;SDS011;11930;53.076;18.250;2022-09-16T07:34:03;5.07;;;1.45;;
23506;SDS011;11930;53.076;18.250;2022-09-16T07:36:33;5.80;;;1.50;;
23506;SDS011;11930;53.076;18.250;2022-09-16T07:39:04;5.72;;;1.50;;
23506;SDS011;11930;53.076;18.250;2022-09-16T07:41:33;4.65;;;1.35;;
23506;SDS011;11930;53.076;18.250;2022-09-16T07:44:02;5.50;;;1.90;;
23506;SDS011;11930;53.076;18.250;2022-09-16T07:46:29;9.38;;;1.60;;
23506;SDS011;11930;53.076;18.250;2022-09-16T07:48:58;3.53;;;1.60;;
23506;SDS011;11930;53.076;18.250;2022-09-16T07:51:26;4.25;;;1.30;;
23506;SDS011;11930;53.076;18.250;2022-09-16T07:53:53;5.07;;;1.42;;
23506;SDS011;11930;53.076;18.250;2022-09-16T07:56:22;6.38;;;1.38;;
23506;SDS011;11930;53.076;18.250;2022-09-16T07:58:50;13.55;;;8.27;;
23506;SDS011;11930;53.076;18.250;2022-09-16T08:01:18;7.05;;;1.70;;
23506;SDS011;11930;53.076;18.250;2022-09-16T08:03:45;6.75;;;1.52;;
23506;SDS011;11930;53.076;18.250;2022-09-16T08:06:12;3.58;;;1.40;;
23506;SDS011;11930;53.076;18.250;2022-09-16T08:08:46;5.28;;;1.70;;
23506;SDS011;11930;53.076;18.250;2022-09-16T08:11:13;5.40;;;1.60;;
23506;SDS011;11930;53.076;18.250;2022-09-16T08:13:40;4.68;;;1.50;;
23506;SDS011;11930;53.076;18.250;2022-09-16T08:16:09;8.05;;;2.00;;
23506;SDS011;11930;53.076;18.250;2022-09-16T08:18:37;4.80;;;1.38;;
23506;SDS011;11930;53.076;18.250;2022-09-16T08:21:04;4.38;;;1.20;;
23506;SDS011;11930;53.076;18.250;2022-09-16T08:23:34;5.35;;;1.48;;
23506;SDS011;11930;53.076;18.250;2022-09-16T08:26:01;5.13;;;1.50;;
23506;SDS011;11930;53.076;18.250;2022-09-16T08:28:28;3.60;;;1.30;;
23506;SDS011;11930;53.076;18.250;2022-09-16T08:30:57;5.88;;;1.60;;
23506;SDS011;11930;53.076;18.250;2022-09-16T08:33:24;5.80;;;1.48;;
23506;SDS011;11930;53.076;18.250;2022-09-16T08:35:57;11.68;;;2.17;;
23506;SDS011;11930;53.076;18.250;2022-09-16T08:38:29;10.48;;;1.73;;
23506;SDS011;11930;53.076;18.250;2022-09-16T08:41:30;4.40;;;1.30;;
23506;SDS011;11930;53.076;18.250;2022-09-16T08:52:11;5.75;;;1.35;;
23506;SDS011;11930;53.076;18.250;2022-09-16T08:54:50;4.88;;;1.50;;
23506;SDS011;11930;53.076;18.250;2022-09-16T08:57:21;5.15;;;1.65;;
23506;SDS011;11930;53.076;18.250;2022-09-16T08:59:56;6.22;;;1.95;;
23506;SDS011;11930;53.076;18.250;2022-09-16T09:02:29;9.68;;;3.72;;
23506;SDS011;11930;53.076;18.250;2022-09-16T09:05:14;7.45;;;2.58;;
23506;SDS011;11930;53.076;18.250;2022-09-16T09:07:58;7.57;;;2.40;;
23506;SDS011;11930;53.076;18.250;2022-09-16T09:16:02;7.03;;;2.28;;
23506;SDS011;11930;53.076;18.250;2022-09-16T09:26:57;2.55;;;1.10;;
23506;SDS011;11930;53.076;18.250;2022-09-16T09:45:30;3.63;;;1.27;;
23506;SDS011;11930;53.076;18.250;2022-09-16T09:48:22;5.75;;;1.38;;
23506;SDS011;11930;53.076;18.250;2022-09-16T09:50:52;11.05;;;2.05;;
23506;SDS011;11930;53.076;18.250;2022-09-16T09:56:03;8.80;;;1.67;;
23506;SDS011;11930;53.076;18.250;2022-09-16T09:58:41;7.28;;;1.83;;
23506;SDS011;11930;53.076;18.250;2022-09-16T10:01:13;6.60;;;1.25;;
23506;SDS011;11930;53.076;18.250;2022-09-16T10:03:40;5.15;;;1.38;;
23506;SDS011;11930;53.076;18.250;2022-09-16T10:06:06;5.22;;;1.00;;
23506;SDS011;11930;53.076;18.250;2022-09-16T10:08:40;4.75;;;1.10;;
23506;SDS011;11930;53.076;18.250;2022-09-16T10:11:17;4.40;;;0.90;;
23506;SDS011;11930;53.076;18.250;2022-09-16T10:13:47;7.68;;;1.45;;
23506;SDS011;11930;53.076;18.250;2022-09-16T10:16:26;3.55;;;0.95;;
23506;SDS011;11930;53.076;18.250;2022-09-16T10:19:00;7.28;;;1.25;;
23506;SDS011;11930;53.076;18.250;2022-09-16T10:21:36;4.53;;;1.08;;
23506;SDS011;11930;53.076;18.250;2022-09-16T10:29:43;4.65;;;0.88;;
23506;SDS011;11930;53.076;18.250;2022-09-16T10:32:11;11.05;;;1.60;;
23506;SDS011;11930;53.076;18.250;2022-09-16T10:34:43;4.40;;;0.90;;
23506;SDS011;11930;53.076;18.250;2022-09-16T10:39:41;7.97;;;1.25;;
23506;SDS011;11930;53.076;18.250;2022-09-16T10:42:20;4.25;;;1.15;;
23506;SDS011;11930;53.076;18.250;2022-09-16T10:44:57;5.22;;;1.00;;
23506;SDS011;11930;53.076;18.250;2022-09-16T10:47:46;4.40;;;1.23;;
23506;SDS011;11930;53.076;18.250;2022-09-16T10:50:18;4.20;;;0.95;;
23506;SDS011;11930;53.076;18.250;2022-09-16T10:52:46;4.65;;;1.10;;
23506;SDS011;11930;53.076;18.250;2022-09-16T10:57:46;4.80;;;1.00;;
23506;SDS011;11930;53.076;18.250;2022-09-16T11:00:31;4.45;;;1.10;;
23506;SDS011;11930;53.076;18.250;2022-09-16T11:06:05;6.18;;;1.10;;
23506;SDS011;11930;53.076;18.250;2022-09-16T11:20:43;3.67;;;0.93;;
23506;SDS011;11930;53.076;18.250;2022-09-16T11:37:42;6.50;;;1.40;;
23506;SDS011;11930;53.076;18.250;2022-09-16T11:42:56;4.43;;;0.90;;
23506;SDS011;11930;53.076;18.250;2022-09-16T11:50:44;7.10;;;1.50;;
23506;SDS011;11930;53.076;18.250;2022-09-16T11:53:25;4.72;;;1.30;;
23506;SDS011;11930;53.076;18.250;2022-09-16T11:55:57;3.40;;;0.90;;
23506;SDS011;11930;53.076;18.250;2022-09-16T12:01:43;2.65;;;0.73;;
23506;SDS011;11930;53.076;18.250;2022-09-16T12:09:38;5.70;;;1.30;;
23506;SDS011;11930;53.076;18.250;2022-09-16T12:12:13;4.53;;;1.25;;
23506;SDS011;11930;53.076;18.250;2022-09-16T12:14:47;7.25;;;1.33;;
23506;SDS011;11930;53.076;18.250;2022-09-16T12:17:25;5.75;;;1.35;;
23506;SDS011;11930;53.076;18.250;2022-09-16T12:20:01;54.30;;;32.50;;
23506;SDS011;11930;53.076;18.250;2022-09-16T12:22:51;5.25;;;1.80;;
23506;SDS011;11930;53.076;18.250;2022-09-16T12:28:01;5.05;;;1.25;;
23506;SDS011;11930;53.076;18.250;2022-09-16T12:30:34;3.45;;;0.85;;
23506;SDS011;11930;53.076;18.250;2022-09-16T12:36:06;5.68;;;0.90;;
23506;SDS011;11930;53.076;18.250;2022-09-16T12:38:36;3.22;;;0.90;;
23506;SDS011;11930;53.076;18.250;2022-09-16T12:46:45;4.05;;;0.90;;
23506;SDS011;11930;53.076;18.250;2022-09-16T12:49:32;5.43;;;1.15;;
23506;SDS011;11930;53.076;18.250;2022-09-16T13:00:36;5.65;;;1.50;;
23506;SDS011;11930;53.076;18.250;2022-09-16T13:03:10;5.57;;;1.10;;
23506;SDS011;11930;53.076;18.250;2022-09-16T13:05:44;4.75;;;0.95;;
23506;SDS011;11930;53.076;18.250;2022-09-16T13:08:20;5.13;;;0.93;;
23506;SDS011;11930;53.076;18.250;2022-09-16T13:10:53;4.75;;;0.90;;
23506;SDS011;11930;53.076;18.250;2022-09-16T13:13:39;4.97;;;0.93;;
23506;SDS011;11930;53.076;18.250;2022-09-16T13:16:07;6.90;;;3.58;;
23506;SDS011;11930;53.076;18.250;2022-09-16T13:23:43;9.85;;;1.50;;
23506;SDS011;11930;53.076;18.250;2022-09-16T13:26:11;2.67;;;0.98;;
23506;SDS011;11930;53.076;18.250;2022-09-16T13:28:42;5.28;;;0.73;;
23506;SDS011;11930;53.076;18.250;2022-09-16T13:33:36;3.85;;;0.80;;
23506;SDS011;11930;53.076;18.250;2022-09-16T13:41:33;3.72;;;0.73;;
23506;SDS011;11930;53.076;18.250;2022-09-16T13:46:49;9.73;;;1.35;;
23506;SDS011;11930;53.076;18.250;2022-09-16T13:49:19;6.18;;;1.20;;
23506;SDS011;11930;53.076;18.250;2022-09-16T13:51:49;4.82;;;0.90;;
23506;SDS011;11930;53.076;18.250;2022-09-16T13:54:17;7.00;;;1.23;;
23506;SDS011;11930;53.076;18.250;2022-09-16T14:07:45;4.15;;;1.00;;
23506;SDS011;11930;53.076;18.250;2022-09-16T14:13:15;6.22;;;0.95;;
23506;SDS011;11930;53.076;18.250;2022-09-16T14:15:46;2.38;;;0.85;;
23506;SDS011;11930;53.076;18.250;2022-09-16T14:18:17;4.22;;;1.13;;
23506;SDS011;11930;53.076;18.250;2022-09-16T14:23:23;4.70;;;0.82;;
23506;SDS011;11930;53.076;18.250;2022-09-16T14:25:50;4.22;;;0.88;;
23506;SDS011;11930;53.076;18.250;2022-09-16T14:28:17;1.00;;;0.70;;
23506;SDS011;11930;53.076;18.250;2022-09-16T14:31:05;3.13;;;0.80;;
23506;SDS011;11930;53.076;18.250;2022-09-16T14:33:39;4.95;;;0.95;;
23506;SDS011;11930;53.076;18.250;2022-09-16T14:36:17;4.85;;;1.25;;
23506;SDS011;11930;53.076;18.250;2022-09-16T14:38:47;7.68;;;1.35;;
23506;SDS011;11930;53.076;18.250;2022-09-16T14:41:39;5.20;;;0.98;;
23506;SDS011;11930;53.076;18.250;2022-09-16T14:49:41;3.92;;;0.82;;
23506;SDS011;11930;53.076;18.250;2022-09-16T14:52:17;6.32;;;1.17;;
23506;SDS011;11930;53.076;18.250;2022-09-16T14:54:47;2.85;;;0.90;;
23506;SDS011;11930;53.076;18.250;2022-09-16T14:57:19;5.60;;;1.25;;
23506;SDS011;11930;53.076;18.250;2022-09-16T14:59:51;3.65;;;1.00;;
23506;SDS011;11930;53.076;18.250;2022-09-16T15:05:07;3.13;;;0.93;;
23506;SDS011;11930;53.076;18.250;2022-09-16T15:07:38;4.30;;;1.00;;
23506;SDS011;11930;53.076;18.250;2022-09-16T15:10:07;4.05;;;0.70;;
23506;SDS011;11930;53.076;18.250;2022-09-16T15:12:52;5.28;;;1.00;;
23506;SDS011;11930;53.076;18.250;2022-09-16T15:15:22;4.53;;;1.33;;
23506;SDS011;11930;53.076;18.250;2022-09-16T15:17:58;3.95;;;1.00;;
23506;SDS011;11930;53.076;18.250;2022-09-16T15:20:31;5.25;;;1.17;;
23506;SDS011;11930;53.076;18.250;2022-09-16T15:23:02;3.45;;;1.00;;
23506;SDS011;11930;53.076;18.250;2022-09-16T15:25:30;3.63;;;1.55;;
23506;SDS011;11930;53.076;18.250;2022-09-16T15:28:03;4.15;;;1.25;;
23506;SDS011;11930;53.076;18.250;2022-09-16T15:30:31;5.25;;;1.15;;
23506;SDS011;11930;53.076;18.250;2022-09-16T15:33:01;3.55;;;1.05;;
23506;SDS011;11930;53.076;18.250;2022-09-16T15:35:28;3.28;;;0.90;;
23506;SDS011;11930;53.076;18.250;2022-09-16T15:38:19;5.15;;;0.90;;
23506;SDS011;11930;53.076;18.250;2022-09-16T15:40:48;5.75;;;1.30;;
23506;SDS011;11930;53.076;18.250;2022-09-16T15:43:26;4.93;;;1.10;;
23506;SDS011;11930;53.076;18.250;2022-09-16T15:45:57;4.45;;;0.90;;
23506;SDS011;11930;53.076;18.250;2022-09-16T15:48:45;2.20;;;0.70;;
23506;SDS011;11930;53.076;18.250;2022-09-16T15:51:25;3.75;;;0.90;;
23506;SDS011;11930;53.076;18.250;2022-09-16T15:56:59;5.63;;;2.60;;
23506;SDS011;11930;53.076;18.250;2022-09-16T15:59:59;4.10;;;1.10;;
23506;SDS011;11930;53.076;18.250;2022-09-16T16:05:15;19.00;;;1.85;;
23506;SDS011;11930;53.076;18.250;2022-09-16T16:07:45;8.85;;;3.67;;
23506;SDS011;11930;53.076;18.250;2022-09-16T16:10:21;9.63;;;1.95;;
23506;SDS011;11930;53.076;18.250;2022-09-16T16:12:51;2.60;;;1.60;;
23506;SDS011;11930;53.076;18.250;2022-09-16T16:15:36;7.45;;;1.63;;
23506;SDS011;11930;53.076;18.250;2022-09-16T16:18:08;2.80;;;1.30;;
23506;SDS011;11930;53.076;18.250;2022-09-16T16:20:35;3.95;;;2.42;;
23506;SDS011;11930;53.076;18.250;2022-09-16T16:23:05;11.18;;;7.47;;
23506;SDS011;11930;53.076;18.250;2022-09-16T16:25:31;5.35;;;2.60;;
23506;SDS011;11930;53.076;18.250;2022-09-16T16:28:00;5.32;;;1.20;;
23506;SDS011;11930;53.076;18.250;2022-09-16T16:30:26;4.80;;;1.33;;
23506;SDS011;11930;53.076;18.250;2022-09-16T16:32:52;5.43;;;2.13;;
23506;SDS011;11930;53.076;18.250;2022-09-16T16:35:18;10.18;;;2.75;;
23506;SDS011;11930;53.076;18.250;2022-09-16T16:37:44;7.63;;;2.27;;
23506;SDS011;11930;53.076;18.250;2022-09-16T16:40:11;9.03;;;2.90;;
23506;SDS011;11930;53.076;18.250;2022-09-16T16:42:38;8.00;;;4.50;;
23506;SDS011;11930;53.076;18.250;2022-09-16T16:45:04;16.43;;;8.77;;
23506;SDS011;11930;53.076;18.250;2022-09-16T16:47:31;8.13;;;4.53;;
23506;SDS011;11930;53.076;18.250;2022-09-16T16:49:57;7.37;;;2.73;;
23506;SDS011;11930;53.076;18.250;2022-09-16T16:52:25;6.23;;;2.00;;
23506;SDS011;11930;53.076;18.250;2022-09-16T16:54:51;8.03;;;3.27;;
23506;SDS011;11930;53.076;18.250;2022-09-16T16:57:17;9.93;;;6.10;;
23506;SDS011;11930;53.076;18.250;2022-09-16T16:59:43;26.23;;;15.43;;
23506;SDS011;11930;53.076;18.250;2022-09-16T17:02:10;76.53;;;42.23;;
23506;SDS011;11930;53.076;18.250;2022-09-16T17:04:36;78.47;;;44.93;;
23506;SDS011;11930;53.076;18.250;2022-09-16T17:07:04;74.90;;;48.50;;
23506;SDS011;11930;53.076;18.250;2022-09-16T17:09:31;42.00;;;20.30;;
23506;SDS011;11930;53.076;18.250;2022-09-16T17:11:57;69.47;;;38.00;;
23506;SDS011;11930;53.076;18.250;2022-09-16T17:14:26;52.00;;;28.33;;
23506;SDS011;11930;53.076;18.250;2022-09-16T17:16:54;43.60;;;24.97;;
23506;SDS011;11930;53.076;18.250;2022-09-16T17:19:22;30.97;;;16.87;;
23506;SDS011;11930;53.076;18.250;2022-09-16T17:21:50;8.03;;;4.50;;
23506;SDS011;11930;53.076;18.250;2022-09-16T17:24:22;13.97;;;8.03;;
23506;SDS011;11930;53.076;18.250;2022-09-16T17:26:48;12.10;;;7.07;;
23506;SDS011;11930;53.076;18.250;2022-09-16T17:29:14;92.77;;;45.50;;
23506;SDS011;11930;53.076;18.250;2022-09-16T17:31:40;85.50;;;42.90;;
23506;SDS011;11930;53.076;18.250;2022-09-16T17:34:08;61.30;;;33.20;;
23506;SDS011;11930;53.076;18.250;2022-09-16T17:36:37;24.67;;;15.70;;
23506;SDS011;11930;53.076;18.250;2022-09-16T17:39:05;11.80;;;5.83;;
23506;SDS011;11930;53.076;18.250;2022-09-16T17:41:32;11.03;;;4.13;;
23506;SDS011;11930;53.076;18.250;2022-09-16T17:44:02;11.43;;;6.00;;
23506;SDS011;11930;53.076;18.250;2022-09-16T17:46:30;13.20;;;6.20;;
23506;SDS011;11930;53.076;18.250;2022-09-16T17:48:59;8.97;;;4.43;;
23506;SDS011;11930;53.076;18.250;2022-09-16T18:51:44;5.67;;;2.50;;
23506;SDS011;11930;53.076;18.250;2022-09-16T18:54:15;12.93;;;4.00;;
23506;SDS011;11930;53.076;18.250;2022-09-16T18:56:43;9.53;;;4.47;;
23506;SDS011;11930;53.076;18.250;2022-09-16T18:59:14;12.17;;;3.80;;
23506;SDS011;11930;53.076;18.250;2022-09-16T19:01:45;12.97;;;3.77;;
23506;SDS011;11930;53.076;18.250;2022-09-16T19:04:16;7.23;;;2.50;;
23506;SDS011;11930;53.076;18.250;2022-09-16T19:06:45;5.70;;;2.17;;
23506;SDS011;11930;53.076;18.250;2022-09-16T19:09:14;7.63;;;2.13;;
23506;SDS011;11930;53.076;18.250;2022-09-16T19:11:41;7.90;;;2.33;;
23506;SDS011;11930;53.076;18.250;2022-09-16T19:14:09;4.60;;;2.07;;
23506;SDS011;11930;53.076;18.250;2022-09-16T19:16:40;6.20;;;2.17;;
23506;SDS011;11930;53.076;18.250;2022-09-16T19:19:08;6.23;;;2.00;;